Ranchester, WY (82839)

11:18 AM MDT on October 25, 2014 (GMT -0600)
KWYSHERI2 | Change Station
CLOSE
Current Station
Personal Weather Station
Location: Sheridan, WY
Elevation: 3828 ft
Nearby Weather Stations

Elev 3828 ft 44.81 °N, 106.98 °W | Updated 6 minutes ago

Clear
Clear
51.4 °F
Feels Like 51.4 °F
N
0.0
Wind Variable Wind from NNE
Gusts 0.0 mph

Today
High -- | Low -- °F
--% Chance of Precip.
Yesterday
High -- | Low -- °F
Precip. -- in
7:37 AM 6:07 PM
Waxing Crescent, 4% visible
Pressure 30.06 in
Visibility 10.0 miles
Clouds Clear
Dew Point 33 °F
Humidity 49%
Rainfall 0.00 in
Snow Depth Not available.
UV 3 out of 12
Pollen 1.70 out of 12
Air Quality Not available.
Flu Activity Sporadic
METAR KSHR 251653Z AUTO 00000KT 10SM CLR 10/01 A3002 RMK AO2 SLP179 T01000006 TSNO

More Conditions Fewer Conditions

Pressure 30.06 in
Visibility 10.0 miles
Clouds Clear
Dew Point 33 °F
Humidity 49%
Rainfall 0.00 in
Snow Depth Not available.
UV 3 out of 12
Pollen 1.70 out of 12
Air Quality Not available.
Flu Activity Sporadic
METAR KSHR 251653Z AUTO 00000KT 10SM CLR 10/01 A3002 RMK AO2 SLP179 T01000006 TSNO

More Conditions Fewer Conditions

10-Day Weather Forecast

Almanac

Astronomy

Oct. 25, 2014 Rise Set
Actual Time 7:37 AM MDT 6:07 PM MDT
Civil Twilight 7:07 AM MDT 6:37 PM MDT
Nautical Twilight 6:32 AM MDT 7:11 PM MDT
Astronomical Twilight 5:58 AM MDT 7:45 PM MDT
Moon 9:22 AM MDT 7:28 PM MDT
Length of Visible Light 11h 29m
Length of Day
10h 29m
Tomorrow will be 2m 53s shorter.
Waxing Crescent, 4% of the Moon is Illuminated
Today
Waxing Crescent
Oct 30
First Quarter
Nov 6
Full
Nov 14
Last Quarter
Nov 22
New

Today's Extremes

State Highs State Lows

Community

WunderPhotos

Upload Photos

1,764,916 photos uploaded!

Nearby

Snow Depth

Station Depth Elevation
Sylvan Lake 0 in 8420 ft
Togwotee Pass 0 in 7980 ft
Reno Hill 0 in 8500 ft
Gunsight Pass 0 in 9820 ft
Thumb Divide 0 in 7980 ft

Earthquake Activity

City Distance Mag. Time & Date
No recent earthquake activity has been reported nearby.
Minimum magnitude displayed is 2.5.

Coastal Water Temperatures

Place Temperature
No Stations Reporting

Nearby Weather Stations